Metar Aviation Weather Data KVNC

88°F Temp
75°F Dewpoint
% Humidity
Temperature
14 MPH
23 KM/H
12 KTS
200°
South South
West

Wind Speed
Clear
Conditions
Pressure 1016.62 (hPa) - 30.02 (in)
Visibility 10.0 (mi) - 16 (km)

Current Conditions
KVNC
Metar :KVNC 182115Z AUTO 20012KT 10SM CLR 31/24 A3002 RMK AO2
Tue 18th June 17:15 pm

  Metar Aviation API Data Provided by https://www.checkwx.com/ PHP scripts by weather34.com ©2019